createdAt,value
2023-02-14T00:01:11.465Z,3.57
2023-02-14T00:06:16.372Z,3.57
2023-02-14T00:11:20.983Z,3.55
2023-02-14T00:16:27.446Z,3.57
2023-02-14T00:21:33.261Z,3.57
2023-02-14T00:26:39.599Z,3.55
2023-02-14T00:31:47.074Z,3.47
2023-02-14T00:36:51.735Z,3.53
2023-02-14T00:41:55.883Z,3.48
2023-02-14T00:47:02.353Z,3.52
2023-02-14T00:52:08.174Z,3.55
2023-02-14T00:57:12.727Z,3.51
2023-02-14T01:02:19.939Z,3.50
2023-02-14T01:07:24.537Z,3.47
2023-02-14T01:12:30.826Z,3.51
2023-02-14T01:17:36.794Z,3.44
2023-02-14T01:22:41.845Z,3.44
2023-02-14T01:27:46.383Z,3.53
2023-02-14T01:32:52.686Z,3.38
2023-02-14T01:37:58.335Z,3.44
2023-02-14T01:43:02.994Z,3.45
2023-02-14T01:48:09.791Z,3.44
2023-02-14T01:53:18.543Z,3.42
2023-02-14T01:58:27.574Z,3.39
2023-02-14T02:03:41.370Z,3.42
2023-02-14T02:08:55.797Z,3.42
2023-02-14T02:14:00.613Z,3.37
2023-02-14T02:19:36.512Z,3.43
2023-02-14T02:24:54.837Z,3.48
2023-02-14T02:31:08.993Z,3.39
2023-02-14T02:37:01.786Z,3.42
2023-02-14T02:42:20.400Z,3.38
2023-02-14T02:47:32.802Z,3.43
2023-02-14T02:53:06.462Z,3.46
2023-02-14T02:58:15.287Z,3.38
2023-02-14T03:03:40.280Z,3.42
2023-02-14T03:08:45.949Z,3.39
2023-02-14T03:14:10.521Z,3.38
2023-02-14T03:20:00.377Z,3.38
2023-02-14T03:25:23.870Z,3.40
2023-02-14T03:30:42.391Z,3.39
2023-02-14T03:36:02.188Z,3.41
2023-02-14T03:41:15.980Z,3.40
2023-02-14T03:46:26.919Z,3.39
2023-02-14T03:51:35.114Z,3.39
2023-02-14T03:56:48.382Z,3.43
2023-02-14T04:02:00.936Z,3.33
2023-02-14T04:07:12.152Z,3.30
2023-02-14T04:12:32.299Z,3.30
2023-02-14T04:17:59.590Z,3.34
2023-02-14T04:23:04.388Z,3.34
2023-02-14T04:28:10.305Z,3.25
2023-02-14T04:33:14.469Z,3.27
2023-02-14T04:38:19.270Z,3.27
2023-02-14T04:43:25.062Z,3.23
2023-02-14T04:48:29.657Z,3.23
2023-02-14T04:53:34.180Z,3.19
2023-02-14T04:58:39.955Z,3.20
2023-02-14T05:03:44.315Z,3.20
2023-02-14T05:08:48.699Z,3.18
2023-02-14T05:13:54.577Z,3.23
2023-02-14T05:18:58.912Z,3.26
2023-02-14T05:24:03.451Z,3.24
2023-02-14T05:29:09.349Z,3.22
2023-02-14T05:34:14.162Z,3.18
2023-02-14T05:39:20.498Z,3.14
2023-02-14T05:44:26.051Z,3.09
2023-02-14T05:49:30.173Z,3.20
2023-02-14T05:54:34.707Z,3.21
2023-02-14T05:59:40.593Z,3.11
2023-02-14T06:04:46.699Z,3.13
2023-02-14T06:09:51.115Z,3.17
2023-02-14T06:14:56.820Z,3.17
2023-02-14T06:20:02.556Z,3.18
2023-02-14T06:25:08.000Z,3.18
2023-02-14T06:30:16.133Z,3.14
2023-02-14T06:35:20.670Z,3.19
2023-02-14T06:40:25.876Z,3.21
2023-02-14T06:45:31.997Z,3.27
2023-02-14T06:50:37.274Z,3.23
2023-02-14T06:55:43.783Z,3.26
2023-02-14T07:00:50.756Z,3.31
2023-02-14T07:05:55.790Z,3.36
2023-02-14T07:11:00.901Z,3.40
2023-02-14T07:16:07.347Z,3.51
2023-02-14T07:21:11.716Z,3.58
2023-02-14T07:26:18.297Z,3.61
2023-02-14T07:31:24.730Z,3.62
2023-02-14T07:36:29.432Z,3.65
2023-02-14T07:41:33.563Z,3.65
2023-02-14T07:46:43.581Z,3.74
2023-02-14T07:51:47.800Z,3.88
2023-02-14T07:56:52.211Z,3.76
2023-02-14T08:01:58.251Z,3.84
2023-02-14T08:07:02.137Z,3.87
2023-02-14T08:12:24.574Z,3.84
2023-02-14T08:17:30.546Z,3.92
2023-02-14T08:22:34.779Z,4.01
2023-02-14T08:27:39.747Z,3.98
2023-02-14T08:32:45.837Z,4.03
2023-02-14T08:37:50.422Z,4.02
2023-02-14T08:42:54.703Z,4.06
2023-02-14T08:48:04.905Z,4.06
2023-02-14T08:53:10.401Z,4.18
2023-02-14T08:58:14.957Z,4.11
2023-02-14T09:03:21.142Z,4.13
2023-02-14T09:08:25.759Z,4.15
2023-02-14T09:13:30.615Z,4.29
2023-02-14T09:18:37.769Z,4.19
2023-02-14T09:23:41.987Z,4.19
2023-02-14T09:28:46.873Z,4.33
2023-02-14T09:34:10.699Z,4.31
2023-02-14T09:39:14.768Z,4.33
2023-02-14T09:44:28.396Z,4.34
2023-02-14T09:49:39.999Z,4.43
2023-02-14T09:54:49.571Z,4.42
2023-02-14T10:00:00.796Z,4.56
2023-02-14T10:05:14.990Z,4.54
2023-02-14T10:10:26.536Z,4.61
2023-02-14T10:15:35.769Z,4.62
2023-02-14T10:20:46.474Z,4.55
2023-02-14T10:25:56.340Z,4.52
2023-02-14T10:31:21.298Z,4.60
2023-02-14T10:37:05.967Z,4.49
2023-02-14T10:42:23.587Z,4.72
2023-02-14T10:47:47.099Z,4.70
2023-02-14T10:53:06.073Z,4.81
2023-02-14T10:58:16.477Z,4.87
2023-02-14T11:03:21.833Z,5.03
2023-02-14T11:08:33.900Z,4.99
2023-02-14T11:13:42.655Z,5.05
2023-02-14T11:18:48.113Z,5.15
2023-02-14T11:23:54.006Z,5.12
2023-02-14T11:29:02.341Z,5.20
2023-02-14T11:34:24.939Z,5.18
2023-02-14T11:39:34.748Z,5.37
2023-02-14T11:44:44.206Z,5.33
2023-02-14T11:49:57.406Z,5.46
2023-02-14T11:55:03.299Z,5.40
2023-02-14T12:00:18.258Z,5.40
2023-02-14T12:05:28.933Z,5.35
2023-02-14T12:10:37.335Z,5.44
2023-02-14T12:15:53.685Z,5.35
2023-02-14T12:21:04.977Z,5.42
2023-02-14T12:26:24.012Z,5.40
2023-02-14T12:31:28.468Z,5.51
2023-02-14T12:37:12.239Z,5.71
2023-02-14T12:42:35.112Z,5.76
2023-02-14T12:47:51.280Z,5.72
2023-02-14T12:53:30.602Z,5.76
2023-02-14T12:58:51.117Z,5.58
2023-02-14T13:04:23.472Z,5.60
2023-02-14T13:09:38.000Z,5.55
2023-02-14T13:14:59.121Z,5.63
2023-02-14T13:20:27.553Z,5.76
2023-02-14T13:25:37.418Z,5.76
2023-02-14T13:30:44.534Z,5.96
2023-02-14T13:35:50.047Z,5.87
2023-02-14T13:40:56.397Z,5.83
2023-02-14T13:46:05.108Z,5.74
2023-02-14T13:51:11.420Z,5.76
2023-02-14T13:56:35.846Z,5.83
2023-02-14T14:01:48.205Z,5.98
2023-02-14T14:07:23.208Z,5.77
2023-02-14T14:12:45.953Z,5.79
2023-02-14T14:18:32.771Z,5.86
2023-02-14T14:23:38.614Z,5.77
2023-02-14T14:28:47.710Z,5.86
2023-02-14T14:34:03.475Z,5.67
2023-02-14T14:39:10.648Z,5.53
2023-02-14T14:44:16.384Z,5.63
2023-02-14T14:49:22.582Z,5.41
2023-02-14T14:54:27.703Z,5.35
2023-02-14T14:59:35.200Z,5.33
2023-02-14T15:04:40.652Z,5.09
2023-02-14T15:09:45.665Z,5.09
2023-02-14T15:14:54.671Z,5.01
2023-02-14T15:20:04.579Z,4.95
2023-02-14T15:25:12.727Z,4.95
2023-02-14T15:30:29.824Z,4.87
2023-02-14T15:35:42.267Z,4.84
2023-02-14T15:40:47.087Z,4.83
2023-02-14T15:45:56.566Z,4.84
2023-02-14T15:51:06.336Z,4.83
2023-02-14T15:56:22.058Z,4.75
2023-02-14T16:01:27.366Z,4.79
2023-02-14T16:06:38.561Z,4.74
2023-02-14T16:11:44.044Z,4.66
2023-02-14T16:17:00.805Z,4.58
2023-02-14T16:22:08.344Z,4.59
2023-02-14T16:27:13.364Z,4.54
2023-02-14T16:32:22.889Z,4.52
2023-02-14T16:37:33.254Z,4.61
2023-02-14T16:42:39.863Z,4.51
2023-02-14T16:47:47.161Z,4.43
2023-02-14T16:52:56.078Z,4.39
2023-02-14T16:58:01.726Z,4.45
2023-02-14T17:03:07.272Z,4.43
2023-02-14T17:08:15.079Z,4.43
2023-02-14T17:13:23.960Z,4.43
2023-02-14T17:18:29.006Z,4.44
2023-02-14T17:23:34.817Z,4.34
2023-02-14T17:28:39.252Z,4.35
2023-02-14T17:33:43.756Z,4.34
2023-02-14T17:38:49.614Z,4.37
2023-02-14T17:43:55.448Z,4.42
2023-02-14T17:49:02.666Z,4.42
2023-02-14T17:54:08.422Z,4.40
2023-02-14T17:59:12.828Z,4.46
2023-02-14T18:04:16.999Z,4.33
2023-02-14T18:09:23.604Z,4.40
2023-02-14T18:14:28.641Z,4.36
2023-02-14T18:19:33.686Z,4.33
2023-02-14T18:24:39.696Z,4.23
2023-02-14T18:29:43.897Z,4.32
2023-02-14T18:34:48.270Z,4.20
2023-02-14T18:39:53.775Z,4.19
2023-02-14T18:44:58.012Z,4.19
2023-02-14T18:50:02.158Z,4.17
2023-02-14T18:55:08.702Z,4.14
2023-02-14T19:00:15.871Z,4.03
2023-02-14T19:05:20.694Z,4.12
2023-02-14T19:10:26.493Z,4.22
2023-02-14T19:15:30.742Z,4.11
2023-02-14T19:20:35.323Z,4.07
2023-02-14T19:25:43.080Z,4.06
2023-02-14T19:30:48.098Z,4.13
2023-02-14T19:36:02.013Z,4.06
2023-02-14T19:41:14.593Z,3.96
2023-02-14T19:46:21.180Z,4.02
2023-02-14T19:51:28.097Z,4.06
2023-02-14T19:56:36.482Z,4.02
2023-02-14T20:01:43.127Z,4.01
2023-02-14T20:06:49.255Z,3.97
2023-02-14T20:11:56.726Z,4.04
2023-02-14T20:17:03.919Z,3.94
2023-02-14T20:22:08.503Z,3.89
2023-02-14T20:27:14.386Z,3.88
2023-02-14T20:32:19.095Z,3.86
2023-02-14T20:37:23.682Z,3.92
2023-02-14T20:42:29.561Z,3.81
2023-02-14T20:47:34.259Z,3.82
2023-02-14T20:52:38.631Z,3.77
2023-02-14T20:57:45.647Z,3.81
2023-02-14T21:02:50.081Z,3.74
2023-02-14T21:07:54.354Z,3.74
2023-02-14T21:13:00.209Z,3.62
2023-02-14T21:18:04.746Z,3.73
2023-02-14T21:23:08.958Z,3.60
2023-02-14T21:28:14.989Z,3.63
2023-02-14T21:33:19.697Z,3.54
2023-02-14T21:38:24.086Z,3.51
2023-02-14T21:43:30.092Z,3.58
2023-02-14T21:48:52.635Z,3.50
2023-02-14T21:54:00.214Z,3.46
2023-02-14T21:59:06.218Z,3.40
2023-02-14T22:04:13.470Z,3.50
2023-02-14T22:09:18.893Z,3.53
2023-02-14T22:14:24.660Z,3.46
2023-02-14T22:19:28.976Z,3.40
2023-02-14T22:24:33.196Z,3.33
2023-02-14T22:29:39.282Z,3.32
2023-02-14T22:34:43.753Z,3.22
2023-02-14T22:39:48.116Z,3.30
2023-02-14T22:44:53.654Z,3.31
2023-02-14T22:50:00.100Z,3.39
2023-02-14T22:55:05.468Z,3.42
2023-02-14T23:00:12.602Z,3.37
2023-02-14T23:05:17.255Z,3.19
2023-02-14T23:10:21.779Z,3.19
2023-02-14T23:15:45.209Z,3.18
2023-02-14T23:21:07.357Z,3.06
2023-02-14T23:26:11.466Z,3.15
2023-02-14T23:31:17.415Z,3.20
2023-02-14T23:36:22.020Z,3.28
2023-02-14T23:41:43.634Z,3.22
2023-02-14T23:46:50.635Z,3.28
2023-02-14T23:51:56.672Z,3.17
2023-02-14T23:57:01.342Z,3.23
